createdAt,value
2023-02-28T00:05:40.380Z,47.06
2023-02-28T00:15:10.934Z,46.88
2023-02-28T00:18:18.897Z,46.85
2023-02-28T00:21:08.741Z,47.04
2023-02-28T00:24:04.472Z,46.87
2023-02-28T00:26:56.994Z,47.20
2023-02-28T00:29:53.509Z,47.21
2023-02-28T00:32:59.295Z,47.09
2023-02-28T00:35:57.196Z,47.03
2023-02-28T00:48:23.734Z,47.16
2023-02-28T00:51:15.426Z,47.29
2023-02-28T00:54:04.239Z,46.86
2023-02-28T00:56:52.851Z,47.11
2023-02-28T00:59:41.749Z,46.75
2023-02-28T01:02:31.405Z,47.32
2023-02-28T01:05:21.500Z,46.89
2023-02-28T01:08:14.609Z,47.40
2023-02-28T01:11:10.584Z,47.29
2023-02-28T01:14:00.013Z,46.96
2023-02-28T01:16:56.395Z,47.29
2023-02-28T01:19:47.312Z,47.37
2023-02-28T01:26:00.557Z,47.42
2023-02-28T01:28:59.292Z,47.09
2023-02-28T01:31:57.847Z,46.91
2023-02-28T01:42:48.564Z,47.31
2023-02-28T01:49:24.289Z,47.06
2023-02-28T01:52:23.642Z,46.97
2023-02-28T01:55:20.476Z,47.18
2023-02-28T01:58:26.264Z,46.86
2023-02-28T02:01:52.701Z,47.52
2023-02-28T02:04:59.194Z,47.11
2023-02-28T02:07:56.480Z,47.12
2023-02-28T02:10:54.124Z,47.30
2023-02-28T02:13:59.513Z,47.29
2023-02-28T02:16:58.608Z,47.16
2023-02-28T02:20:42.176Z,46.96
2023-02-28T02:23:41.838Z,47.46
2023-02-28T02:30:56.034Z,47.60
2023-02-28T02:34:36.941Z,47.38
2023-02-28T02:37:41.139Z,47.56
2023-02-28T02:40:36.398Z,47.06
2023-02-28T02:43:42.278Z,47.46
2023-02-28T02:46:36.904Z,47.34
2023-02-28T02:49:34.162Z,47.49
2023-02-28T02:52:35.858Z,47.42
2023-02-28T02:58:45.943Z,47.09
2023-02-28T03:01:45.337Z,47.09
2023-02-28T03:08:13.516Z,47.58
2023-02-28T03:14:50.832Z,47.42
2023-02-28T03:21:45.616Z,47.09
2023-02-28T03:24:51.058Z,47.36
2023-02-28T03:38:21.250Z,47.19
2023-02-28T03:45:31.747Z,47.37
2023-02-28T03:48:25.332Z,47.08
2023-02-28T03:51:31.400Z,47.26
2023-02-28T03:54:25.749Z,47.55
2023-02-28T04:04:52.587Z,47.82
2023-02-28T04:11:22.272Z,47.52
2023-02-28T04:17:39.878Z,47.48
2023-02-28T04:38:56.904Z,47.66
2023-02-28T04:42:08.120Z,47.58
2023-02-28T04:54:42.323Z,47.51
2023-02-28T05:04:11.565Z,47.83
2023-02-28T05:07:11.562Z,47.54
2023-02-28T05:21:21.936Z,47.71
2023-02-28T05:24:15.980Z,47.50
2023-02-28T05:27:05.026Z,47.79
2023-02-28T05:29:53.689Z,47.51
2023-02-28T05:32:43.874Z,47.71
2023-02-28T05:35:32.560Z,47.57
2023-02-28T05:38:22.662Z,47.80
2023-02-28T05:41:12.331Z,47.53
2023-02-28T05:44:02.342Z,47.74
2023-02-28T05:46:51.009Z,47.68
2023-02-28T05:56:07.063Z,47.49
2023-02-28T05:58:56.289Z,47.90
2023-02-28T06:01:52.599Z,47.98
2023-02-28T06:04:49.620Z,47.94
2023-02-28T06:08:07.385Z,47.81
2023-02-28T06:11:27.719Z,47.60
2023-02-28T06:18:17.964Z,47.49
2023-02-28T06:21:16.903Z,47.57
2023-02-28T06:24:29.025Z,47.91
2023-02-28T06:27:51.351Z,48.17
2023-02-28T06:30:46.663Z,48.23
2023-02-28T06:33:43.543Z,48.04
2023-02-28T06:36:34.580Z,48.52
2023-02-28T06:39:24.823Z,48.21
2023-02-28T06:42:14.136Z,48.35
2023-02-28T06:45:21.003Z,48.29
2023-02-28T06:55:25.722Z,47.99
2023-02-28T06:58:32.806Z,48.27
2023-02-28T07:04:56.943Z,47.84
2023-02-28T07:08:00.858Z,48.33
2023-02-28T07:14:05.942Z,48.26
2023-02-28T07:20:00.691Z,48.12
2023-02-28T07:22:56.769Z,48.35
2023-02-28T07:25:50.994Z,48.13
2023-02-28T07:28:44.525Z,48.19
2023-02-28T07:31:34.376Z,48.32
2023-02-28T07:34:23.616Z,48.04
2023-02-28T07:37:15.498Z,48.26
2023-02-28T07:40:09.318Z,48.00
2023-02-28T07:42:59.564Z,47.91
2023-02-28T07:46:06.934Z,47.63
2023-02-28T07:52:18.687Z,47.83
2023-02-28T07:55:11.072Z,47.66
2023-02-28T07:58:05.404Z,47.80
2023-02-28T08:00:56.769Z,47.83
2023-02-28T08:03:50.940Z,47.52
2023-02-28T08:06:40.196Z,47.74
2023-02-28T08:09:35.795Z,47.66
2023-02-28T08:12:36.831Z,47.74
2023-02-28T08:15:42.045Z,47.50
2023-02-28T08:18:33.908Z,47.49
2023-02-28T08:21:24.253Z,47.35
2023-02-28T08:24:14.064Z,47.17
2023-02-28T08:27:12.962Z,47.12
2023-02-28T08:30:11.399Z,47.38
2023-02-28T08:33:04.921Z,47.20
2023-02-28T08:36:00.322Z,47.74
2023-02-28T08:38:49.986Z,47.56
2023-02-28T08:42:05.763Z,47.36
2023-02-28T08:44:59.332Z,47.80
2023-02-28T08:47:49.787Z,47.62
2023-02-28T08:50:39.810Z,47.69
2023-02-28T08:53:32.204Z,47.71
2023-02-28T08:56:24.227Z,47.90
2023-02-28T08:59:13.831Z,47.73
2023-02-28T09:02:08.875Z,47.77
2023-02-28T09:04:58.153Z,47.90
2023-02-28T09:07:50.930Z,47.27
2023-02-28T09:10:42.941Z,47.21
2023-02-28T09:13:33.668Z,47.63
2023-02-28T09:16:23.326Z,47.54
2023-02-28T09:19:15.637Z,47.49
2023-02-28T09:22:05.721Z,47.29
2023-02-28T09:24:55.560Z,47.54
2023-02-28T09:27:56.791Z,47.22
2023-02-28T09:30:48.022Z,46.76
2023-02-28T09:33:37.534Z,47.16
2023-02-28T09:36:38.146Z,46.47
2023-02-28T09:39:34.487Z,46.56
2023-02-28T09:42:28.228Z,46.30
2023-02-28T09:45:26.125Z,46.61
2023-02-28T09:48:19.405Z,46.49
2023-02-28T09:51:30.614Z,46.56
2023-02-28T09:54:21.894Z,46.42
2023-02-28T09:57:18.647Z,46.58
2023-02-28T10:00:14.576Z,46.62
2023-02-28T10:03:31.364Z,46.91
2023-02-28T10:06:23.560Z,46.23
2023-02-28T10:09:16.960Z,46.52
2023-02-28T10:12:11.003Z,46.71
2023-02-28T10:15:09.712Z,46.88
2023-02-28T10:18:08.792Z,47.15
2023-02-28T10:20:59.634Z,47.07
2023-02-28T10:23:50.007Z,46.75
2023-02-28T10:26:39.704Z,46.89
2023-02-28T10:29:30.288Z,47.03
2023-02-28T10:32:24.526Z,47.09
2023-02-28T10:35:18.778Z,47.16
2023-02-28T10:38:19.643Z,46.93
2023-02-28T10:41:10.833Z,46.74
2023-02-28T10:44:23.407Z,46.87
2023-02-28T10:47:18.247Z,46.96
2023-02-28T10:50:08.390Z,46.94
2023-02-28T10:52:58.092Z,47.10
2023-02-28T10:55:49.261Z,47.08
2023-02-28T10:58:50.744Z,46.94
2023-02-28T11:01:42.500Z,47.47
2023-02-28T11:04:41.363Z,46.86
2023-02-28T11:07:41.460Z,46.97
2023-02-28T11:10:40.309Z,47.28
2023-02-28T11:13:37.429Z,47.34
2023-02-28T11:16:35.292Z,47.21
2023-02-28T11:19:29.042Z,47.45
2023-02-28T11:22:25.493Z,47.51
2023-02-28T11:25:24.353Z,47.27
2023-02-28T11:28:28.687Z,47.07
2023-02-28T11:31:23.327Z,46.98
2023-02-28T11:34:28.720Z,46.98
2023-02-28T11:37:20.397Z,46.66
2023-02-28T11:40:16.322Z,46.82
2023-02-28T11:43:13.406Z,46.90
2023-02-28T11:46:11.387Z,47.04
2023-02-28T11:49:23.577Z,46.90
2023-02-28T11:52:27.188Z,46.81
2023-02-28T11:55:23.970Z,46.87
2023-02-28T11:58:30.056Z,46.94
2023-02-28T12:01:29.517Z,46.60
2023-02-28T12:04:32.322Z,46.76
2023-02-28T12:07:31.436Z,46.80
2023-02-28T12:10:26.939Z,46.74
2023-02-28T12:13:25.687Z,46.62
2023-02-28T12:16:35.707Z,46.54
2023-02-28T12:19:30.269Z,46.74
2023-02-28T12:22:29.322Z,46.60
2023-02-28T12:25:42.658Z,46.54
2023-02-28T12:28:40.034Z,46.56
2023-02-28T12:31:34.406Z,46.28
2023-02-28T12:34:29.805Z,46.70
2023-02-28T12:37:25.803Z,46.50
2023-02-28T12:40:19.655Z,46.37
2023-02-28T12:43:12.094Z,46.57
2023-02-28T12:46:09.229Z,46.57
2023-02-28T12:49:00.872Z,46.37
2023-02-28T12:51:52.720Z,46.75
2023-02-28T12:54:47.907Z,47.13
2023-02-28T12:57:40.632Z,46.97
2023-02-28T13:00:34.123Z,46.95
2023-02-28T13:03:46.657Z,46.89
2023-02-28T13:06:47.666Z,47.25
2023-02-28T13:09:38.672Z,47.13
2023-02-28T13:12:32.051Z,47.50
2023-02-28T13:15:25.445Z,47.18
2023-02-28T13:18:32.852Z,47.31
2023-02-28T13:21:34.088Z,47.37
2023-02-28T13:24:52.574Z,47.20
2023-02-28T13:27:48.934Z,47.61
2023-02-28T13:31:10.414Z,47.47
2023-02-28T13:34:16.698Z,47.10
2023-02-28T13:37:36.560Z,47.33
2023-02-28T13:40:39.697Z,47.50
2023-02-28T13:44:03.555Z,47.54
2023-02-28T13:47:28.636Z,47.37
2023-02-28T13:50:26.247Z,47.25
2023-02-28T13:53:53.585Z,47.38
2023-02-28T13:56:49.656Z,47.40
2023-02-28T13:59:53.886Z,47.44
2023-02-28T14:03:15.187Z,47.35
2023-02-28T14:06:26.171Z,47.26
2023-02-28T14:09:25.015Z,47.37
2023-02-28T14:12:55.248Z,47.35
2023-02-28T14:15:55.509Z,47.59
2023-02-28T14:18:52.018Z,47.23
2023-02-28T14:21:50.561Z,47.24
2023-02-28T14:25:04.547Z,47.15
2023-02-28T14:28:02.064Z,47.53
2023-02-28T14:31:05.036Z,40.22
2023-02-28T14:34:18.226Z,34.24
2023-02-28T14:37:15.573Z,34.08
2023-02-28T14:40:09.003Z,31.83
2023-02-28T14:43:04.442Z,30.16
2023-02-28T14:46:03.365Z,29.47
2023-02-28T14:48:57.897Z,28.75
2023-02-28T14:51:52.176Z,28.54
2023-02-28T14:54:59.379Z,27.26
2023-02-28T14:57:57.373Z,27.29
2023-02-28T15:00:53.856Z,31.59
2023-02-28T15:03:51.091Z,33.38
2023-02-28T15:06:40.720Z,34.32
2023-02-28T15:09:40.466Z,34.56
2023-02-28T15:12:38.485Z,34.94
2023-02-28T15:15:46.185Z,35.07
2023-02-28T15:18:50.120Z,35.29
2023-02-28T15:22:04.144Z,35.70
2023-02-28T15:25:12.467Z,36.08
2023-02-28T15:28:25.690Z,36.07
2023-02-28T15:31:50.309Z,36.32
2023-02-28T15:38:17.723Z,36.96
2023-02-28T15:41:24.553Z,36.39
2023-02-28T15:44:41.675Z,36.48
2023-02-28T15:47:42.310Z,36.74
2023-02-28T15:50:35.173Z,36.61
2023-02-28T15:53:29.589Z,36.72
2023-02-28T15:56:33.297Z,36.64
2023-02-28T15:59:25.641Z,36.54
2023-02-28T16:02:22.380Z,36.83
2023-02-28T16:05:30.707Z,37.13
2023-02-28T16:08:24.717Z,38.46
2023-02-28T16:11:15.099Z,39.27
2023-02-28T16:14:07.391Z,39.37
2023-02-28T16:16:58.964Z,40.10
2023-02-28T16:19:48.102Z,40.35
2023-02-28T16:22:38.442Z,40.13
2023-02-28T16:25:36.248Z,40.69
2023-02-28T16:28:33.562Z,40.95
2023-02-28T16:31:46.601Z,40.92
2023-02-28T16:38:44.314Z,41.09
2023-02-28T16:42:23.640Z,41.51
2023-02-28T17:03:54.149Z,42.42
2023-02-28T17:14:21.598Z,42.89
2023-02-28T17:17:19.912Z,42.86
2023-02-28T17:20:28.049Z,42.87
2023-02-28T17:23:17.997Z,43.41
2023-02-28T17:29:17.754Z,43.33
2023-02-28T17:35:31.008Z,43.30
2023-02-28T18:10:29.458Z,42.96
2023-02-28T18:17:53.206Z,42.92
2023-02-28T18:32:22.749Z,43.12
2023-02-28T19:02:01.802Z,43.68
2023-02-28T19:08:56.989Z,44.03
2023-02-28T19:21:31.401Z,43.26
2023-02-28T19:24:42.834Z,42.92
2023-02-28T19:27:40.161Z,42.50
2023-02-28T19:33:41.704Z,42.69
2023-02-28T19:37:07.073Z,42.93
2023-02-28T19:40:00.908Z,43.71
2023-02-28T19:42:51.238Z,43.08
2023-02-28T19:45:40.489Z,42.88
2023-02-28T19:48:30.078Z,42.82
2023-02-28T19:51:19.650Z,42.63
2023-02-28T19:54:10.095Z,42.71
2023-02-28T19:57:02.175Z,42.62
2023-02-28T19:59:52.285Z,42.66
2023-02-28T20:02:48.308Z,43.18
2023-02-28T20:05:46.214Z,43.13
2023-02-28T20:08:36.322Z,43.24
2023-02-28T20:11:28.070Z,42.68
2023-02-28T20:14:20.185Z,43.23
2023-02-28T20:17:09.556Z,43.11
2023-02-28T20:23:02.457Z,43.14
2023-02-28T20:25:54.194Z,43.26
2023-02-28T20:28:45.177Z,43.76
2023-02-28T20:31:42.099Z,43.59
2023-02-28T20:34:33.891Z,44.03
2023-02-28T20:37:22.822Z,43.93
2023-02-28T20:40:19.681Z,43.89
2023-02-28T20:43:08.825Z,43.96
2023-02-28T20:46:06.556Z,44.18
2023-02-28T20:49:14.210Z,44.27
2023-02-28T20:52:09.835Z,44.10
2023-02-28T20:55:03.715Z,43.98
2023-02-28T20:57:56.469Z,44.15
2023-02-28T21:00:45.570Z,44.50
2023-02-28T21:03:36.109Z,44.48
2023-02-28T21:06:28.922Z,44.72
2023-02-28T21:09:18.467Z,44.46
2023-02-28T21:12:07.729Z,44.92
2023-02-28T21:14:56.744Z,45.63
2023-02-28T21:17:48.287Z,45.74
2023-02-28T21:20:36.994Z,45.50
2023-02-28T21:23:27.348Z,45.92
2023-02-28T21:26:19.255Z,46.09
2023-02-28T21:29:08.382Z,46.33
2023-02-28T21:31:57.179Z,45.99
2023-02-28T21:34:48.227Z,46.37
2023-02-28T21:37:39.494Z,45.84
2023-02-28T21:40:29.758Z,46.18
2023-02-28T21:43:21.465Z,46.39
2023-02-28T21:46:12.057Z,46.56
2023-02-28T21:49:00.974Z,46.42
2023-02-28T21:51:57.739Z,46.50
2023-02-28T21:54:46.988Z,46.33
2023-02-28T21:57:37.490Z,46.21
2023-02-28T22:00:27.426Z,46.29
2023-02-28T22:03:23.000Z,46.53
2023-02-28T22:06:14.082Z,46.74
2023-02-28T22:09:06.137Z,46.34
2023-02-28T22:11:55.230Z,46.56
2023-02-28T22:14:46.226Z,46.39
2023-02-28T22:17:35.690Z,46.45
2023-02-28T22:20:24.514Z,46.37
2023-02-28T22:23:13.279Z,46.71
2023-02-28T22:26:02.428Z,46.16
2023-02-28T22:28:51.795Z,46.18
2023-02-28T22:31:42.470Z,46.13
2023-02-28T22:34:31.500Z,46.09
2023-02-28T22:37:21.874Z,46.15
2023-02-28T22:40:11.999Z,45.83
2023-02-28T22:43:00.637Z,46.22
2023-02-28T22:45:49.550Z,46.09
2023-02-28T22:48:40.130Z,46.67
2023-02-28T22:51:29.270Z,46.36
2023-02-28T22:54:18.390Z,46.39
2023-02-28T22:57:07.243Z,46.24
2023-02-28T22:59:56.058Z,46.23
2023-02-28T23:02:45.148Z,46.19
2023-02-28T23:05:35.271Z,46.14
2023-02-28T23:08:24.225Z,46.50
2023-02-28T23:11:18.100Z,46.21
2023-02-28T23:14:14.368Z,46.57
2023-02-28T23:17:03.103Z,46.71
2023-02-28T23:19:51.998Z,46.80
2023-02-28T23:22:50.732Z,47.12
2023-02-28T23:25:41.929Z,46.47
2023-02-28T23:28:31.372Z,46.82
2023-02-28T23:31:20.138Z,46.75
2023-02-28T23:34:09.552Z,46.49
2023-02-28T23:37:00.535Z,46.81
2023-02-28T23:39:51.647Z,46.74
